Time;durP1;ratioP1;P1;durP2;ratioP2;P2;SDS_P1;SDS_P2;PMS_P1;PMS_P2;Temp;Humidity;BMP_temperature;BMP_pressure;BME280_temperature;BME280_humidity;BME280_pressure;Samples;Min_cycle;Max_cycle;Signal;HPM_P1;HPM_P2
2023/09/03 00:02:10;;;;;;;2.55;1.75;;;;;16.70;94810.00;;;;7398897;19;20921;-79
2023/09/03 00:04:58;;;;;;;1.95;1.63;;;;;16.70;94853.00;;;;7401169;19;20680;-79
2023/09/03 00:07:53;;;;;;;3.40;1.90;;;;;16.80;94855.00;;;;7401581;19;20151;-78
2023/09/03 00:10:29;;;;;;;3.42;1.88;;;;;16.70;94842.00;;;;7400621;19;20149;-77
2023/09/03 00:13:12;;;;;;;1.90;1.70;;;;;16.70;94849.00;;;;7399993;19;20148;-78
2023/09/03 00:15:55;;;;;;;3.20;1.85;;;;;16.60;94848.00;;;;7400245;19;20137;-77
2023/09/03 00:18:32;;;;;;;3.03;1.88;;;;;16.60;94849.00;;;;7399729;19;20121;-78
2023/09/03 00:21:06;;;;;;;3.58;1.60;;;;;16.60;94847.00;;;;7400662;19;20137;-78
2023/09/03 00:23:41;;;;;;;3.45;1.90;;;;;16.60;94846.00;;;;7400808;19;20612;-78
2023/09/03 00:26:17;;;;;;;2.25;1.70;;;;;16.60;94850.00;;;;7402164;19;20604;-79
2023/09/03 00:28:52;;;;;;;7.47;2.80;;;;;16.60;94845.00;;;;7400719;19;20610;-79
2023/09/03 00:31:23;;;;;;;5.22;1.92;;;;;16.60;94841.00;;;;7401020;19;20596;-78
2023/09/03 00:33:51;;;;;;;3.58;1.90;;;;;16.60;94843.00;;;;7400940;19;20125;-77
2023/09/03 00:36:25;;;;;;;2.40;1.70;;;;;16.50;94837.00;;;;7400813;19;20129;-75
2023/09/03 00:38:59;;;;;;;2.50;1.80;;;;;16.50;94852.00;;;;7398391;19;20607;-75
2023/09/03 00:41:29;;;;;;;2.58;2.03;;;;;16.50;94856.00;;;;7400763;19;20201;-73
2023/09/03 00:44:04;;;;;;;2.08;1.80;;;;;16.60;94851.00;;;;7400039;19;20300;-75
2023/09/03 00:46:32;;;;;;;5.13;2.03;;;;;16.60;94858.00;;;;7401307;19;20133;-76
2023/09/03 00:49:07;;;;;;;2.10;1.80;;;;;16.60;94861.00;;;;7400214;19;20140;-76
2023/09/03 00:51:41;;;;;;;4.25;2.22;;;;;16.70;94858.00;;;;7401047;19;20133;-75
2023/09/03 00:54:16;;;;;;;4.28;2.08;;;;;16.70;94868.00;;;;7399622;19;20600;-77
2023/09/03 00:56:45;;;;;;;2.08;1.83;;;;;16.70;94861.00;;;;7399299;19;20136;-74
2023/09/03 00:59:22;;;;;;;2.60;2.10;;;;;16.80;94866.00;;;;7398217;19;20147;-75
2023/09/03 01:01:51;;;;;;;4.55;2.22;;;;;16.70;94851.00;;;;7397387;19;20699;-75
2023/09/03 01:04:27;;;;;;;2.10;1.70;;;;;16.80;94857.00;;;;7401654;19;20140;-76
2023/09/03 01:06:55;;;;;;;3.75;1.90;;;;;16.70;94855.00;;;;7400030;19;20623;-76
2023/09/03 01:09:23;;;;;;;3.58;1.83;;;;;16.70;94854.00;;;;7399229;19;20612;-75
2023/09/03 01:12:10;;;;;;;2.45;1.67;;;;;16.70;94859.00;;;;7398176;19;20619;-75
2023/09/03 01:15:07;;;;;;;2.28;2.08;;;;;16.70;94854.00;;;;7399643;19;20635;-75
2023/09/03 01:17:58;;;;;;;4.00;1.90;;;;;16.70;94857.00;;;;7399160;19;20504;-75
2023/09/03 01:20:38;;;;;;;3.75;1.80;;;;;16.70;94857.00;;;;7399578;19;20148;-75
2023/09/03 01:23:50;;;;;;;5.20;2.17;;;;;16.80;94862.00;;;;7400731;19;20216;-75
2023/09/03 01:26:44;;;;;;;3.85;2.05;;;;;16.80;94868.00;;;;7396460;19;20148;-75
2023/09/03 01:29:20;;;;;;;2.60;1.98;;;;;16.70;94865.00;;;;7399662;19;20734;-75
2023/09/03 01:31:56;;;;;;;3.20;2.63;;;;;16.60;94863.00;;;;7399937;19;20132;-76
2023/09/03 01:34:26;;;;;;;2.63;1.85;;;;;16.50;94870.00;;;;7398701;19;20129;-75
2023/09/03 01:37:00;;;;;;;3.45;2.05;;;;;16.60;94879.00;;;;7397749;19;20575;-75
2023/09/03 01:39:29;;;;;;;2.67;1.80;;;;;16.60;94886.00;;;;7396649;19;20211;-75
2023/09/03 01:42:04;;;;;;;3.58;1.77;;;;;16.60;94889.00;;;;7399671;19;20640;-76
2023/09/03 01:44:39;;;;;;;4.53;2.00;;;;;16.50;94882.00;;;;7398923;19;20591;-76
2023/09/03 01:47:42;;;;;;;2.75;1.80;;;;;16.50;94880.00;;;;7398309;19;20614;-77
2023/09/03 01:50:25;;;;;;;2.35;1.67;;;;;16.50;94892.00;;;;7397467;19;20149;-79
2023/09/03 01:53:11;;;;;;;2.17;1.70;;;;;16.50;94899.00;;;;7398208;19;20213;-78
2023/09/03 01:55:54;;;;;;;2.10;1.85;;;;;16.50;94902.00;;;;7399102;19;20140;-78
2023/09/03 01:58:27;;;;;;;4.10;2.20;;;;;16.40;94899.00;;;;7398460;19;20132;-78
2023/09/03 02:01:04;;;;;;;2.67;1.92;;;;;16.50;94896.00;;;;7397987;19;20515;-77
2023/09/03 02:03:40;;;;;;;3.78;1.65;;;;;16.40;94902.00;;;;7399779;19;20181;-78
2023/09/03 02:06:09;;;;;;;2.80;1.88;;;;;16.50;94904.00;;;;7397575;19;20534;-78
2023/09/03 02:08:51;;;;;;;4.63;1.83;;;;;16.50;94901.00;;;;7398693;19;20485;-79
2023/09/03 02:11:20;;;;;;;2.97;2.17;;;;;16.30;94899.00;;;;7398815;19;20137;-82
2023/09/03 02:14:01;;;;;;;2.33;1.80;;;;;16.30;94902.00;;;;7394209;19;20144;-78
2023/09/03 02:16:46;;;;;;;3.53;2.03;;;;;16.20;94911.00;;;;7396919;19;20144;-78
2023/09/03 02:19:22;;;;;;;2.75;2.03;;;;;16.10;94907.00;;;;7397470;19;20136;-78
2023/09/03 02:21:57;;;;;;;2.65;1.70;;;;;16.10;94914.00;;;;7398050;19;20136;-78
2023/09/03 02:24:32;;;;;;;3.83;2.10;;;;;16.20;94913.00;;;;7397230;19;20164;-77
2023/09/03 02:27:08;;;;;;;2.50;1.80;;;;;16.20;94909.00;;;;7395779;19;20146;-78
2023/09/03 02:29:42;;;;;;;2.63;1.90;;;;;16.10;94915.00;;;;7396816;19;20187;-79
2023/09/03 02:32:11;;;;;;;5.25;1.88;;;;;16.10;94913.00;;;;7395440;19;20149;-78
2023/09/03 02:34:46;;;;;;;2.90;2.00;;;;;16.10;94908.00;;;;7395670;19;20123;-77
2023/09/03 02:37:14;;;;;;;6.05;2.10;;;;;16.10;94912.00;;;;7396891;19;20133;-78
2023/09/03 02:39:48;;;;;;;2.95;2.00;;;;;16.10;94913.00;;;;7395726;19;20698;-78
2023/09/03 02:42:16;;;;;;;3.30;1.70;;;;;16.20;94910.00;;;;7396999;19;20137;-78
2023/09/03 02:44:50;;;;;;;1.95;1.75;;;;;16.10;94898.00;;;;7397483;19;20596;-78
2023/09/03 02:47:19;;;;;;;3.25;1.92;;;;;16.10;94908.00;;;;7397341;19;20147;-78
2023/09/03 02:49:54;;;;;;;3.22;2.00;;;;;16.00;94907.00;;;;7396538;19;20165;-78
2023/09/03 02:52:29;;;;;;;2.65;1.70;;;;;16.00;94909.00;;;;7397416;19;20600;-78
2023/09/03 02:55:03;;;;;;;3.90;1.88;;;;;16.10;94905.00;;;;7395739;19;20145;-77
2023/09/03 02:57:31;;;;;;;3.38;1.70;;;;;16.20;94908.00;;;;7395877;19;20149;-78
2023/09/03 03:00:06;;;;;;;3.35;1.40;;;;;16.20;94910.00;;;;7394218;19;20156;-77
2023/09/03 03:02:41;;;;;;;2.13;1.77;;;;;16.20;94917.00;;;;7393531;19;20170;-79
2023/09/03 03:05:17;;;;;;;2.33;1.80;;;;;16.10;94921.00;;;;7395074;19;20132;-79
2023/09/03 03:07:46;;;;;;;2.63;1.80;;;;;16.10;94922.00;;;;7397179;19;20136;-79
2023/09/03 03:10:20;;;;;;;3.78;1.95;;;;;16.10;94925.00;;;;7395360;19;20327;-78
2023/09/03 03:12:48;;;;;;;2.90;1.98;;;;;16.10;94923.00;;;;7395328;19;20162;-78
2023/09/03 03:15:29;;;;;;;5.50;2.33;;;;;16.10;94914.00;;;;7394903;19;20553;-78
2023/09/03 03:17:57;;;;;;;3.00;1.75;;;;;16.10;94906.00;;;;7394857;19;20161;-78
2023/09/03 03:20:35;;;;;;;1.55;1.45;;;;;16.00;94908.00;;;;7392909;19;20608;-78
2023/09/03 03:23:03;;;;;;;4.05;1.98;;;;;15.90;94899.00;;;;7396647;19;20612;-78
2023/09/03 03:25:38;;;;;;;2.00;1.60;;;;;16.00;94916.00;;;;7396133;19;20140;-78
2023/09/03 03:28:07;;;;;;;2.13;1.60;;;;;15.90;94917.00;;;;7396161;19;20596;-78
2023/09/03 03:30:41;;;;;;;4.80;1.98;;;;;15.90;94914.00;;;;7394515;19;20133;-75
2023/09/03 03:33:09;;;;;;;5.07;1.80;;;;;15.80;94921.00;;;;7395106;19;20157;-77
2023/09/03 03:35:37;;;;;;;3.05;1.95;;;;;15.80;94924.00;;;;7394503;19;20275;-77
2023/09/03 03:38:12;;;;;;;2.83;2.00;;;;;15.70;94931.00;;;;7395827;19;20145;-77
2023/09/03 03:40:48;;;;;;;3.63;1.60;;;;;15.60;94935.00;;;;7392210;19;20244;-77
2023/09/03 03:43:15;;;;;;;2.42;2.22;;;;;15.70;94936.00;;;;7396487;19;20145;-76
2023/09/03 03:45:51;;;;;;;2.53;2.00;;;;;15.70;94941.00;;;;7394536;19;20130;-76
2023/09/03 03:48:26;;;;;;;2.42;2.00;;;;;15.50;94935.00;;;;7394131;19;20125;-78
2023/09/03 03:51:01;;;;;;;4.70;2.15;;;;;15.50;94945.00;;;;7396059;19;20588;-78
2023/09/03 03:53:29;;;;;;;2.75;2.05;;;;;15.50;94939.00;;;;7395766;19;20663;-77
2023/09/03 03:56:06;;;;;;;6.50;2.28;;;;;15.60;94941.00;;;;7395150;19;20150;-77
2023/09/03 03:58:42;;;;;;;5.05;1.85;;;;;15.60;94957.00;;;;7394297;19;20155;-78
2023/09/03 04:01:23;;;;;;;2.50;2.20;;;;;15.60;94954.00;;;;7393557;19;20137;-77
2023/09/03 04:03:57;;;;;;;4.70;2.28;;;;;15.70;94900.00;;;;7394282;19;20216;-76
2023/09/03 04:06:27;;;;;;;4.85;2.65;;;;;15.60;94950.00;;;;7393481;19;20238;-78
2023/09/03 04:09:02;;;;;;;3.45;2.00;;;;;15.70;94954.00;;;;7394170;19;20133;-77
2023/09/03 04:11:36;;;;;;;3.63;2.17;;;;;15.70;94945.00;;;;7394136;19;20206;-78
2023/09/03 04:14:17;;;;;;;4.05;2.60;;;;;15.50;94939.00;;;;7391872;19;20160;-78
2023/09/03 04:16:54;;;;;;;2.97;2.45;;;;;15.50;94941.00;;;;7394651;19;20133;-77
2023/09/03 04:19:22;;;;;;;4.93;2.58;;;;;15.60;94959.00;;;;7393549;19;20596;-78
2023/09/03 04:21:56;;;;;;;5.43;2.25;;;;;15.60;94963.00;;;;7393782;19;20624;-77
2023/09/03 04:24:24;;;;;;;3.25;2.40;;;;;15.70;94958.00;;;;7394704;19;20141;-78
2023/09/03 04:26:58;;;;;;;3.55;2.10;;;;;15.70;94956.00;;;;7392796;19;20608;-77
2023/09/03 04:29:30;;;;;;;2.63;2.20;;;;;15.70;94959.00;;;;7394414;19;20140;-77
2023/09/03 04:32:04;;;;;;;3.13;2.10;;;;;15.80;94962.00;;;;7400289;19;20148;-78
2023/09/03 04:34:32;;;;;;;3.08;2.40;;;;;15.90;94962.00;;;;7400488;19;20204;-77
2023/09/03 04:37:06;;;;;;;2.45;2.22;;;;;16.00;94964.00;;;;7400548;19;20153;-78
2023/09/03 04:39:34;;;;;;;2.88;2.45;;;;;16.00;94959.00;;;;7399097;19;20145;-78
2023/09/03 04:42:09;;;;;;;2.55;2.20;;;;;15.90;94966.00;;;;7401193;19;20140;-76
2023/09/03 04:44:43;;;;;;;3.03;2.05;;;;;16.00;94967.00;;;;7400547;19;20160;-79
2023/09/03 04:47:17;;;;;;;5.15;2.47;;;;;16.00;94969.00;;;;7399888;19;20467;-78
2023/09/03 04:49:51;;;;;;;2.78;2.40;;;;;16.00;94977.00;;;;7399296;19;20641;-76
2023/09/03 04:52:19;;;;;;;3.30;2.42;;;;;16.00;94973.00;;;;7399447;19;20145;-76
2023/09/03 04:54:54;;;;;;;5.38;2.40;;;;;16.00;94979.00;;;;7402207;19;20132;-76
2023/09/03 04:57:22;;;;;;;2.92;2.22;;;;;16.10;94978.00;;;;7398545;19;20967;-76
2023/09/03 04:59:58;;;;;;;2.40;2.20;;;;;16.10;94978.00;;;;7401026;19;20128;-78
2023/09/03 05:02:27;;;;;;;3.05;2.20;;;;;16.10;94981.00;;;;7397062;19;20223;-76
2023/09/03 05:05:05;;;;;;;2.15;1.92;;;;;16.10;94988.00;;;;7400045;19;20132;-78
2023/09/03 05:07:39;;;;;;;4.75;2.30;;;;;16.10;94991.00;;;;7401092;19;20156;-78
2023/09/03 05:10:17;;;;;;;4.72;2.30;;;;;16.10;94985.00;;;;7400959;19;20152;-76
2023/09/03 05:12:45;;;;;;;4.07;2.25;;;;;16.20;94988.00;;;;7397965;19;20624;-77
2023/09/03 05:15:25;;;;;;;4.75;2.13;;;;;16.30;94977.00;;;;7401064;19;20145;-77
2023/09/03 05:17:53;;;;;;;2.80;2.40;;;;;16.40;94989.00;;;;7399727;19;20165;-79
2023/09/03 05:20:28;;;;;;;2.47;2.28;;;;;16.40;94981.00;;;;7397064;19;20180;-77
2023/09/03 05:22:56;;;;;;;2.40;2.20;;;;;16.50;94988.00;;;;7400295;19;20161;-77
2023/09/03 05:25:31;;;;;;;2.05;1.90;;;;;16.60;94988.00;;;;7399098;19;20634;-78
2023/09/03 05:28:05;;;;;;;6.97;2.15;;;;;16.70;94988.00;;;;7401086;19;20150;-75
2023/09/03 05:30:40;;;;;;;3.08;2.13;;;;;16.80;94990.00;;;;7400457;19;20149;-79
2023/09/03 05:33:08;;;;;;;2.92;2.22;;;;;16.80;94990.00;;;;7397853;19;20263;-77
2023/09/03 05:35:54;;;;;;;6.55;2.22;;;;;16.80;94998.00;;;;7400587;19;20136;-76
2023/09/03 05:38:22;;;;;;;2.45;2.00;;;;;17.00;95002.00;;;;7397970;19;20592;-77
2023/09/03 05:40:59;;;;;;;2.13;1.92;;;;;17.10;95011.00;;;;7397673;19;20212;-76
2023/09/03 05:43:33;;;;;;;2.20;2.00;;;;;17.10;95021.00;;;;7400573;19;20156;-77
2023/09/03 05:46:08;;;;;;;2.15;1.88;;;;;17.20;95020.00;;;;7400891;19;20254;-79
2023/09/03 05:48:39;;;;;;;3.08;1.85;;;;;17.30;95016.00;;;;7398775;19;20133;-78
2023/09/03 05:51:14;;;;;;;2.22;1.85;;;;;17.40;95019.00;;;;7398852;19;20580;-77
2023/09/03 05:53:43;;;;;;;2.88;1.95;;;;;17.50;95024.00;;;;7399762;19;20141;-76
2023/09/03 05:56:17;;;;;;;2.63;1.70;;;;;17.40;95018.00;;;;7398961;19;20145;-78
2023/09/03 05:58:46;;;;;;;2.40;1.95;;;;;17.70;95005.00;;;;7397301;19;20136;-78
2023/09/03 06:01:20;;;;;;;3.10;1.75;;;;;17.70;94995.00;;;;7395113;19;20168;-78
2023/09/03 06:03:48;;;;;;;2.42;2.05;;;;;17.80;94990.00;;;;7398445;19;20152;-78
2023/09/03 06:06:23;;;;;;;2.20;1.73;;;;;17.80;94990.00;;;;7399864;19;20128;-77
2023/09/03 06:08:51;;;;;;;2.13;1.88;;;;;17.90;94990.00;;;;7398890;19;20141;-79
2023/09/03 06:11:25;;;;;;;2.53;1.90;;;;;17.90;95006.00;;;;7398937;19;20171;-78
2023/09/03 06:13:54;;;;;;;3.47;1.85;;;;;18.00;95011.00;;;;7388179;19;20532;-78
2023/09/03 06:16:36;;;;;;;2.20;1.98;;;;;18.20;95025.00;;;;7387622;19;20171;-78
2023/09/03 06:19:04;;;;;;;2.53;1.67;;;;;18.30;95036.00;;;;7386115;19;20140;-77
2023/09/03 06:21:38;;;;;;;3.00;1.85;;;;;18.50;95025.00;;;;7386810;19;20595;-77
2023/09/03 06:24:07;;;;;;;2.38;1.60;;;;;18.50;95026.00;;;;7384781;19;20148;-76
2023/09/03 06:26:42;;;;;;;1.67;1.52;;;;;18.60;95015.00;;;;7385302;19;20179;-80
2023/09/03 06:29:11;;;;;;;2.83;1.70;;;;;18.60;95014.00;;;;7389942;19;20129;-76
2023/09/03 06:31:49;;;;;;;3.53;1.77;;;;;18.70;95024.00;;;;7393973;19;20675;-78
2023/09/03 06:34:18;;;;;;;2.88;1.65;;;;;18.80;95028.00;;;;7394868;19;20129;-79
2023/09/03 06:36:52;;;;;;;3.45;1.70;;;;;18.90;95035.00;;;;7394466;19;20124;-78
2023/09/03 06:39:37;;;;;;;2.90;1.58;;;;;18.90;95044.00;;;;7395982;19;20164;-79
2023/09/03 06:42:18;;;;;;;1.70;1.60;;;;;19.20;95046.00;;;;7395435;19;20156;-77
2023/09/03 06:44:53;;;;;;;2.63;1.60;;;;;19.40;95042.00;;;;7395301;19;20537;-78
2023/09/03 06:47:21;;;;;;;1.88;1.50;;;;;19.40;95047.00;;;;7396797;19;20132;-79
2023/09/03 06:49:56;;;;;;;1.95;1.42;;;;;19.70;95051.00;;;;7392980;19;20235;-79
2023/09/03 06:52:30;;;;;;;1.50;1.40;;;;;19.90;95056.00;;;;7395366;19;20148;-78
2023/09/03 06:55:04;;;;;;;2.58;1.50;;;;;20.00;95056.00;;;;7395007;19;20129;-78
2023/09/03 06:57:38;;;;;;;1.67;1.58;;;;;20.10;95050.00;;;;7394697;19;20475;-76
2023/09/03 07:00:13;;;;;;;1.50;1.40;;;;;20.20;95051.00;;;;7393395;19;20146;-79
2023/09/03 07:02:48;;;;;;;1.60;1.50;;;;;20.40;95055.00;;;;7395098;19;20184;-77
2023/09/03 07:05:23;;;;;;;1.45;1.35;;;;;20.40;95065.00;;;;7393424;19;20156;-78
2023/09/03 07:07:58;;;;;;;1.77;1.50;;;;;20.60;95065.00;;;;7394080;19;20137;-78
2023/09/03 07:10:33;;;;;;;2.40;1.58;;;;;20.60;95073.00;;;;7396169;19;20187;-79
2023/09/03 07:13:15;;;;;;;2.67;1.40;;;;;20.80;95077.00;;;;7393437;19;20524;-78
2023/09/03 07:15:49;;;;;;;1.83;1.73;;;;;20.90;95081.00;;;;7393343;19;21236;-79
2023/09/03 07:18:24;;;;;;;1.52;1.40;;;;;21.00;95074.00;;;;7391997;19;20129;-79
2023/09/03 07:21:06;;;;;;;2.45;1.40;;;;;21.00;95082.00;;;;7393103;19;20143;-78
2023/09/03 07:23:35;;;;;;;1.63;1.40;;;;;21.10;95075.00;;;;7394930;19;20155;-77
2023/09/03 07:26:10;;;;;;;1.92;1.67;;;;;21.20;95079.00;;;;7394870;19;20165;-78
2023/09/03 07:28:44;;;;;;;2.13;1.48;;;;;21.40;95072.00;;;;7394084;19;20678;-78
2023/09/03 07:31:18;;;;;;;2.08;1.70;;;;;21.40;95075.00;;;;7393425;19;20175;-78
2023/09/03 07:33:53;;;;;;;6.85;2.00;;;;;21.40;95077.00;;;;7393024;19;20144;-79
2023/09/03 07:36:22;;;;;;;3.83;3.15;;;;;21.40;95081.00;;;;7393795;19;20148;-78
2023/09/03 07:38:57;;;;;;;5.95;4.65;;;;;21.50;95077.00;;;;7395016;19;20124;-77
2023/09/03 07:41:26;;;;;;;4.97;4.10;;;;;21.50;95078.00;;;;7392469;19;20162;-78
2023/09/03 07:43:55;;;;;;;7.35;3.70;;;;;21.60;95079.00;;;;7395889;19;20149;-76
2023/09/03 07:46:30;;;;;;;2.53;1.92;;;;;21.50;95097.00;;;;7397006;19;20166;-78
2023/09/03 07:48:58;;;;;;;1.70;1.60;;;;;21.50;95096.00;;;;7396113;19;20141;-77
2023/09/03 07:51:33;;;;;;;1.67;1.58;;;;;21.40;95097.00;;;;7394235;19;20125;-78
2023/09/03 07:54:09;;;;;;;2.03;1.50;;;;;21.50;95097.00;;;;7396985;19;20128;-78
2023/09/03 07:56:43;;;;;;;1.50;1.40;;;;;21.50;95102.00;;;;7394853;19;20125;-77
2023/09/03 07:59:18;;;;;;;1.60;1.42;;;;;21.50;95099.00;;;;7392795;19;20512;-78
2023/09/03 08:01:46;;;;;;;1.40;1.30;;;;;21.60;95102.00;;;;7395252;19;21427;-77
2023/09/03 08:04:24;;;;;;;1.50;1.40;;;;;21.60;95109.00;;;;7393195;19;20222;-77
2023/09/03 08:06:53;;;;;;;2.00;1.80;;;;;21.80;95106.00;;;;7395710;19;20157;-75
2023/09/03 08:09:30;;;;;;;1.83;1.73;;;;;22.00;95109.00;;;;7399656;19;20137;-77
2023/09/03 08:11:58;;;;;;;1.85;1.60;;;;;22.20;95106.00;;;;7396834;19;20144;-76
2023/09/03 08:14:43;;;;;;;2.28;1.50;;;;;22.40;95110.00;;;;7394962;19;20184;-78
2023/09/03 08:17:11;;;;;;;3.83;1.67;;;;;22.30;95113.00;;;;7398569;19;21841;-78
2023/09/03 08:19:47;;;;;;;2.65;2.00;;;;;22.30;95116.00;;;;7396950;19;20148;-77
2023/09/03 08:22:14;;;;;;;3.88;2.10;;;;;22.30;95124.00;;;;7396303;19;20168;-76
2023/09/03 08:24:49;;;;;;;1.60;1.40;;;;;22.30;95122.00;;;;7398022;19;20193;-77
2023/09/03 08:27:17;;;;;;;2.80;1.83;;;;;22.50;95120.00;;;;7396414;19;20216;-76
2023/09/03 08:29:53;;;;;;;1.80;1.70;;;;;22.80;95127.00;;;;7394369;19;20152;-76
2023/09/03 08:32:21;;;;;;;2.08;1.63;;;;;22.80;95124.00;;;;7396680;19;20144;-76
2023/09/03 08:34:56;;;;;;;2.13;1.88;;;;;22.80;95122.00;;;;7396096;19;20531;-76
2023/09/03 08:37:31;;;;;;;2.38;1.75;;;;;22.70;95130.00;;;;7394185;19;20152;-76
2023/09/03 08:40:07;;;;;;;2.55;1.60;;;;;23.10;95131.00;;;;7396897;19;20181;-76
2023/09/03 08:42:37;;;;;;;2.60;1.52;;;;;23.30;95122.00;;;;7395109;19;20185;-77
2023/09/03 08:45:12;;;;;;;1.95;1.67;;;;;23.30;95132.00;;;;7395812;19;20777;-77
2023/09/03 08:47:43;;;;;;;2.53;1.60;;;;;23.30;95135.00;;;;7397247;19;20622;-78
2023/09/03 08:50:22;;;;;;;1.70;1.60;;;;;23.80;95134.00;;;;7399838;19;20132;-77
2023/09/03 08:52:52;;;;;;;2.00;1.67;;;;;23.90;95132.00;;;;7399777;19;20173;-76
2023/09/03 08:55:30;;;;;;;4.25;1.50;;;;;24.20;95125.00;;;;7400400;19;21072;-77
2023/09/03 08:57:59;;;;;;;2.05;1.63;;;;;24.10;95130.00;;;;7398858;19;20145;-76
2023/09/03 09:00:35;;;;;;;3.22;1.60;;;;;23.90;95126.00;;;;7398486;19;20153;-77
2023/09/03 09:03:09;;;;;;;2.92;1.92;;;;;23.70;95121.00;;;;7398222;19;20133;-76
2023/09/03 09:05:46;;;;;;;1.60;1.50;;;;;24.30;95127.00;;;;7398816;19;20204;-77
2023/09/03 09:08:24;;;;;;;1.40;1.30;;;;;24.20;95129.00;;;;7397906;19;20144;-76
2023/09/03 09:11:04;;;;;;;2.35;1.73;;;;;24.60;95130.00;;;;7397146;19;20132;-77
2023/09/03 09:13:47;;;;;;;5.80;1.80;;;;;24.60;95138.00;;;;7398661;19;20178;-76
2023/09/03 09:16:31;;;;;;;2.17;1.30;;;;;24.60;95142.00;;;;7399920;19;20148;-77
2023/09/03 09:19:09;;;;;;;3.65;1.42;;;;;24.90;95141.00;;;;7402543;19;20121;-77
2023/09/03 09:21:46;;;;;;;2.25;1.60;;;;;25.00;95149.00;;;;7399682;19;20148;-76
2023/09/03 09:24:14;;;;;;;5.30;1.65;;;;;24.70;95155.00;;;;7399935;19;20141;-77
2023/09/03 09:26:49;;;;;;;2.22;1.42;;;;;24.70;95150.00;;;;7402719;19;20598;-76
2023/09/03 09:29:22;;;;;;;2.00;1.80;;;;;24.60;95152.00;;;;7399952;19;20156;-76
2023/09/03 09:32:15;;;;;;;1.55;1.45;;;;;24.40;95149.00;;;;7399503;19;20189;-76
2023/09/03 09:34:51;;;;;;;4.63;3.55;;;;;24.40;95154.00;;;;7400609;19;20136;-77
2023/09/03 09:37:25;;;;;;;3.30;1.70;;;;;24.60;95155.00;;;;7397797;19;20152;-76
2023/09/03 09:39:52;;;;;;;1.65;1.52;;;;;24.60;95152.00;;;;7396815;19;20535;-76
2023/09/03 09:42:27;;;;;;;1.45;1.35;;;;;24.10;95167.00;;;;7396529;19;20124;-76
2023/09/03 09:45:01;;;;;;;2.13;1.42;;;;;24.20;95160.00;;;;7399818;19;20137;-74
2023/09/03 09:47:37;;;;;;;1.50;1.40;;;;;24.10;95158.00;;;;7397813;19;20139;-77
2023/09/03 09:50:05;;;;;;;1.42;1.33;;;;;24.50;95154.00;;;;7396559;19;20153;-77
2023/09/03 09:52:41;;;;;;;1.67;1.58;;;;;24.90;95154.00;;;;7398455;19;20181;-77
2023/09/03 09:55:17;;;;;;;1.50;1.40;;;;;25.20;95151.00;;;;7404097;19;20145;-77
2023/09/03 09:57:52;;;;;;;2.03;1.40;;;;;25.40;95157.00;;;;7402288;19;20511;-77
2023/09/03 10:00:33;;;;;;;1.60;1.50;;;;;25.50;95172.00;;;;7401283;19;20137;-77
2023/09/03 10:03:11;;;;;;;2.22;1.33;;;;;25.50;95170.00;;;;7397122;19;20229;-76
2023/09/03 10:05:50;;;;;;;2.25;1.58;;;;;25.50;95164.00;;;;7396082;19;20169;-76
2023/09/03 10:08:25;;;;;;;1.92;1.60;;;;;25.50;95181.00;;;;7398885;19;20611;-75
2023/09/03 10:10:59;;;;;;;1.77;1.35;;;;;25.30;95179.00;;;;7396080;19;20157;-77
2023/09/03 10:13:34;;;;;;;1.60;1.50;;;;;24.80;95184.00;;;;7395641;19;20176;-76
2023/09/03 10:16:19;;;;;;;2.25;1.50;;;;;24.40;95181.00;;;;7394934;19;20141;-76
2023/09/03 10:18:51;;;;;;;1.92;1.30;;;;;24.20;95188.00;;;;7395083;19;20133;-75
2023/09/03 10:21:27;;;;;;;3.03;1.27;;;;;23.70;95192.00;;;;7396123;19;20148;-76
2023/09/03 10:24:25;;;;;;;1.50;1.40;;;;;23.90;95187.00;;;;7398903;19;20136;-77
2023/09/03 10:27:03;;;;;;;1.50;1.40;;;;;24.40;95175.00;;;;7396831;19;20144;-79
2023/09/03 10:29:34;;;;;;;1.88;1.38;;;;;24.70;95185.00;;;;7392530;19;20608;-76
2023/09/03 10:32:16;;;;;;;1.48;1.35;;;;;25.00;95171.00;;;;7396058;19;20156;-75
2023/09/03 10:34:44;;;;;;;1.30;1.20;;;;;25.30;95158.00;;;;7398317;19;20128;-75
2023/09/03 10:37:20;;;;;;;1.40;1.30;;;;;25.40;95185.00;;;;7397642;19;20156;-77
2023/09/03 10:40:19;;;;;;;1.55;1.45;;;;;24.50;95178.00;;;;7396470;19;20136;-76
2023/09/03 10:43:13;;;;;;;1.48;1.30;;;;;24.30;95168.00;;;;7395800;19;20163;-76
2023/09/03 10:46:03;;;;;;;1.52;1.33;;;;;25.20;95156.00;;;;7394613;19;20184;-76
2023/09/03 10:48:38;;;;;;;1.48;1.15;;;;;25.30;95169.00;;;;7394646;19;20615;-76
2023/09/03 10:51:06;;;;;;;1.30;1.20;;;;;25.00;95159.00;;;;7396723;19;20145;-75
2023/09/03 10:53:42;;;;;;;1.30;1.20;;;;;25.20;95141.00;;;;7396029;19;20208;-77
2023/09/03 10:56:19;;;;;;;1.98;1.27;;;;;25.50;95151.00;;;;7394587;19;20154;-76
2023/09/03 10:58:56;;;;;;;2.53;1.30;;;;;25.90;95148.00;;;;7398966;19;20133;-78
2023/09/03 11:01:26;;;;;;;1.10;1.00;;;;;25.90;95146.00;;;;7397373;19;20184;-76
2023/09/03 11:04:06;;;;;;;2.85;1.35;;;;;26.10;95145.00;;;;7396339;19;20496;-76
2023/09/03 11:06:36;;;;;;;1.40;1.15;;;;;26.50;95152.00;;;;7397139;19;20574;-77
2023/09/03 11:09:13;;;;;;;1.80;1.58;;;;;26.50;95152.00;;;;7394393;19;20576;-77
2023/09/03 11:11:42;;;;;;;2.60;1.00;;;;;26.50;95138.00;;;;7392251;19;20152;-77
2023/09/03 11:14:23;;;;;;;2.85;1.23;;;;;26.70;95142.00;;;;7390240;19;20148;-77
2023/09/03 11:16:51;;;;;;;1.30;1.20;;;;;27.00;95148.00;;;;7393369;19;20158;-76
2023/09/03 11:19:37;;;;;;;2.28;1.20;;;;;27.20;95140.00;;;;7389379;19;20152;-76
2023/09/03 11:22:12;;;;;;;4.43;1.27;;;;;26.30;95145.00;;;;7391127;19;20176;-76
2023/09/03 11:24:47;;;;;;;1.85;1.10;;;;;26.50;95132.00;;;;7391406;19;20154;-76
2023/09/03 11:27:15;;;;;;;1.27;1.17;;;;;26.80;95134.00;;;;7391724;19;20204;-76
2023/09/03 11:29:49;;;;;;;3.17;1.10;;;;;27.20;95132.00;;;;7392525;19;20196;-77
2023/09/03 11:32:17;;;;;;;1.20;1.10;;;;;27.40;95137.00;;;;7391177;19;20149;-76
2023/09/03 11:35:00;;;;;;;1.42;1.25;;;;;27.10;95136.00;;;;7392436;19;20592;-77
2023/09/03 11:37:37;;;;;;;1.83;1.52;;;;;27.50;95139.00;;;;7392290;19;20145;-78
2023/09/03 11:40:12;;;;;;;3.78;2.03;;;;;26.60;95139.00;;;;7400070;19;20196;-77
2023/09/03 11:42:50;;;;;;;2.35;1.10;;;;;27.20;95131.00;;;;7405563;19;20659;-76
2023/09/03 11:45:18;;;;;;;1.88;1.40;;;;;27.60;95138.00;;;;7407541;19;20152;-79
2023/09/03 11:47:54;;;;;;;1.30;1.20;;;;;27.80;95143.00;;;;7406176;19;20144;-76
2023/09/03 11:50:22;;;;;;;1.15;1.13;;;;;28.30;95139.00;;;;7407505;19;20140;-76
2023/09/03 11:53:00;;;;;;;1.00;1.00;;;;;28.10;95143.00;;;;7405836;19;20143;-76
2023/09/03 11:55:41;;;;;;;1.48;1.38;;;;;27.60;95146.00;;;;7406362;19;20132;-76
2023/09/03 11:58:20;;;;;;;1.35;1.25;;;;;27.70;95146.00;;;;7405206;19;20626;-76
2023/09/03 12:00:55;;;;;;;2.20;1.45;;;;;28.20;95136.00;;;;7403517;19;20215;-77
2023/09/03 12:03:24;;;;;;;1.30;1.20;;;;;27.60;95161.00;;;;7406277;19;20606;-75
2023/09/03 12:06:00;;;;;;;1.95;1.30;;;;;27.60;95162.00;;;;7406730;19;20131;-76
2023/09/03 12:08:32;;;;;;;1.45;1.10;;;;;27.30;95164.00;;;;7405082;19;20128;-76
2023/09/03 12:11:07;;;;;;;1.33;1.20;;;;;26.10;95171.00;;;;7405138;19;20258;-77
2023/09/03 12:13:39;;;;;;;1.63;1.30;;;;;25.90;95168.00;;;;7406152;19;20215;-76
2023/09/03 12:16:23;;;;;;;2.35;1.20;;;;;25.80;95172.00;;;;7406138;19;20684;-76
2023/09/03 12:18:59;;;;;;;3.53;1.08;;;;;25.20;95172.00;;;;7403625;19;20139;-77
2023/09/03 12:21:37;;;;;;;1.02;0.95;;;;;26.00;95151.00;;;;7404041;19;20175;-77
2023/09/03 12:24:11;;;;;;;1.08;0.98;;;;;27.00;95143.00;;;;7405080;19;20140;-76
2023/09/03 12:26:46;;;;;;;1.20;1.10;;;;;27.30;95150.00;;;;7404772;19;20132;-76
2023/09/03 12:29:21;;;;;;;2.33;1.10;;;;;28.00;95141.00;;;;7403816;19;20150;-76
2023/09/03 12:31:56;;;;;;;1.15;1.05;;;;;27.90;95143.00;;;;7407307;19;20465;-77
2023/09/03 12:34:39;;;;;;;1.20;1.05;;;;;28.20;95147.00;;;;7405683;19;20148;-76
2023/09/03 12:37:11;;;;;;;1.08;1.02;;;;;29.00;95141.00;;;;7404828;19;20136;-77
2023/09/03 12:39:47;;;;;;;1.77;1.27;;;;;28.70;95143.00;;;;7404720;19;20144;-76
2023/09/03 12:42:17;;;;;;;1.00;0.90;;;;;28.80;95148.00;;;;7408012;19;20125;-77
2023/09/03 12:44:55;;;;;;;1.52;1.13;;;;;28.60;95146.00;;;;7407508;19;20142;-76
2023/09/03 12:47:23;;;;;;;2.35;1.08;;;;;28.50;95147.00;;;;7404068;19;20160;-77
2023/09/03 12:50:00;;;;;;;1.00;1.00;;;;;28.40;95153.00;;;;7404734;19;20152;-76
2023/09/03 12:52:29;;;;;;;1.45;1.13;;;;;27.70;95154.00;;;;7395205;19;20152;-76
2023/09/03 12:54:58;;;;;;;1.10;1.00;;;;;28.10;95155.00;;;;7398350;19;20136;-77
2023/09/03 12:57:34;;;;;;;1.20;1.10;;;;;28.20;95156.00;;;;7399849;19;20137;-76